createdAt,value
2017-04-12T00:00:18.528Z,60.58
2017-04-12T00:01:28.861Z,60.58
2017-04-12T00:02:38.873Z,60.39
2017-04-12T00:03:49.213Z,60.58
2017-04-12T00:04:59.556Z,60.49
2017-04-12T00:06:09.950Z,60.68
2017-04-12T00:07:20.286Z,60.68
2017-04-12T00:08:30.605Z,60.49
2017-04-12T00:09:40.939Z,60.49
2017-04-12T00:10:51.266Z,60.49
2017-04-12T00:12:01.616Z,60.68
2017-04-12T00:13:11.964Z,60.58
2017-04-12T00:14:21.990Z,60.58
2017-04-12T00:15:32.007Z,60.58
2017-04-12T00:16:42.338Z,60.49
2017-04-12T00:17:52.725Z,60.55
2017-04-12T00:19:02.766Z,60.46
2017-04-12T00:20:12.791Z,60.46
2017-04-12T00:21:22.806Z,60.46
2017-04-12T00:22:33.148Z,60.65
2017-04-12T00:23:43.175Z,60.55
2017-04-12T00:24:53.496Z,60.46
2017-04-12T00:26:03.841Z,60.55
2017-04-12T00:27:14.163Z,60.55
2017-04-12T00:28:24.501Z,60.46
2017-04-12T00:29:34.843Z,60.46
2017-04-12T00:30:45.178Z,60.65
2017-04-12T00:31:55.520Z,60.55
2017-04-12T00:33:05.856Z,60.65
2017-04-12T00:34:16.199Z,60.55
2017-04-12T00:35:26.269Z,60.46
2017-04-12T00:36:36.594Z,60.55
2017-04-12T00:37:46.929Z,60.55
2017-04-12T00:38:56.635Z,60.46
2017-04-12T00:40:06.653Z,60.55
2017-04-12T00:41:17.003Z,60.55
2017-04-12T00:42:27.340Z,60.52
2017-04-12T00:43:37.672Z,59.99
2017-04-12T00:44:48.001Z,60.05
2017-04-12T00:45:58.601Z,60.52
2017-04-12T00:47:08.625Z,60.33
2017-04-12T00:48:18.966Z,60.43
2017-04-12T00:49:29.002Z,60.43
2017-04-12T00:50:39.328Z,60.43
2017-04-12T00:51:49.368Z,60.43
2017-04-12T00:52:59.707Z,60.43
2017-04-12T00:54:10.059Z,60.52
2017-04-12T00:55:20.414Z,60.33
2017-04-12T00:56:30.755Z,60.52
2017-04-12T00:57:41.080Z,60.62
2017-04-12T00:58:51.425Z,60.43
2017-04-12T01:00:01.755Z,60.52
2017-04-12T01:01:12.112Z,60.43
2017-04-12T01:02:22.439Z,60.43
2017-04-12T01:03:32.795Z,60.33
2017-04-12T01:04:42.505Z,60.81
2017-04-12T01:05:52.844Z,60.52
2017-04-12T01:07:03.181Z,60.72
2017-04-12T01:08:13.523Z,60.49
2017-04-12T01:09:23.546Z,59.92
2017-04-12T01:10:33.622Z,60.49
2017-04-12T01:11:43.649Z,60.49
2017-04-12T01:12:53.975Z,60.02
2017-04-12T01:14:04.032Z,60.59
2017-04-12T01:15:14.048Z,60.59
2017-04-12T01:16:24.060Z,60.59
2017-04-12T01:17:34.382Z,60.78
2017-04-12T01:18:44.423Z,60.49
2017-04-12T01:19:54.754Z,60.4
2017-04-12T01:21:04.787Z,59.92
2017-04-12T01:22:15.111Z,60.02
2017-04-12T01:23:24.810Z,59.83
2017-04-12T01:24:35.140Z,59.92
2017-04-12T01:25:45.497Z,60.11
2017-04-12T01:26:55.825Z,59.92
2017-04-12T01:28:05.867Z,60.21
2017-04-12T01:29:16.204Z,59.83
2017-04-12T01:30:26.536Z,59.92
2017-04-12T01:31:36.872Z,60.21
2017-04-12T01:32:46.584Z,60.11
2017-04-12T01:33:56.946Z,60.11
2017-04-12T01:35:07.274Z,60.21
2017-04-12T01:36:17.603Z,60.21
2017-04-12T01:37:27.308Z,60.21
2017-04-12T01:38:37.643Z,59.83
2017-04-12T01:39:47.978Z,60.11
2017-04-12T01:40:58.302Z,59.92
2017-04-12T01:42:08.321Z,59.83
2017-04-12T01:43:18.647Z,60.11
2017-04-12T01:44:28.970Z,60.11
2017-04-12T01:45:39.293Z,59.92
2017-04-12T01:46:49.319Z,59.83
2017-04-12T01:47:59.315Z,60.11
2017-04-12T01:49:09.338Z,59.83
2017-04-12T01:50:19.355Z,60.69
2017-04-12T01:51:29.680Z,60.21
2017-04-12T01:52:39.703Z,60.02
2017-04-12T01:53:49.419Z,59.83
2017-04-12T01:54:59.437Z,60.02
2017-04-12T01:56:09.769Z,59.92
2017-04-12T01:57:20.100Z,60.49
2017-04-12T01:58:30.430Z,60.59
2017-04-12T01:59:40.758Z,60.59
2017-04-12T02:00:51.101Z,60.21
2017-04-12T02:02:01.503Z,60.56
2017-04-12T02:03:11.839Z,60.18
2017-04-12T02:04:21.854Z,60.11
2017-04-12T02:05:32.183Z,60.02
2017-04-12T02:06:42.508Z,59.89
2017-04-12T02:07:52.535Z,60.08
2017-04-12T02:09:02.871Z,59.89
2017-04-12T02:10:13.209Z,59.99
2017-04-12T02:11:23.225Z,59.89
2017-04-12T02:12:33.554Z,59.8
2017-04-12T02:13:43.581Z,59.99
2017-04-12T02:14:53.925Z,59.89
2017-04-12T02:16:03.941Z,60.46
2017-04-12T02:17:13.654Z,60.46
2017-04-12T02:18:23.690Z,60.46
2017-04-12T02:19:33.700Z,59.99
2017-04-12T02:20:43.724Z,59.99
2017-04-12T02:21:54.044Z,59.89
2017-04-12T02:23:04.381Z,60.08
2017-04-12T02:24:14.707Z,59.99
2017-04-12T02:25:25.031Z,60.18
2017-04-12T02:26:35.040Z,59.89
2017-04-12T02:27:45.375Z,59.89
2017-04-12T02:28:55.752Z,60.08
2017-04-12T02:30:06.078Z,59.89
2017-04-12T02:31:15.470Z,59.99
2017-04-12T02:32:25.802Z,59.99
2017-04-12T02:33:36.138Z,59.89
2017-04-12T02:34:46.465Z,59.99
2017-04-12T02:35:56.492Z,59.8
2017-04-12T02:37:06.211Z,60.18
2017-04-12T02:38:16.536Z,59.8
2017-04-12T02:39:26.552Z,59.89
2017-04-12T02:40:36.883Z,59.99
2017-04-12T02:41:47.215Z,59.86
2017-04-12T02:42:56.919Z,59.89
2017-04-12T02:44:07.315Z,59.89
2017-04-12T02:45:17.635Z,59.99
2017-04-12T02:46:27.962Z,59.86
2017-04-12T02:47:38.304Z,60.24
2017-04-12T02:48:48.641Z,60.15
2017-04-12T02:49:58.969Z,59.86
2017-04-12T02:51:08.669Z,60.15
2017-04-12T02:52:18.999Z,60.27
2017-04-12T02:53:29.352Z,60.37
2017-04-12T02:54:39.429Z,60.18
2017-04-12T02:55:49.445Z,59.89
2017-04-12T02:56:59.467Z,59.61
2017-04-12T02:58:09.473Z,59.61
2017-04-12T02:59:19.489Z,59.99
2017-04-12T03:00:29.817Z,59.7
2017-04-12T03:01:39.833Z,59.8
2017-04-12T03:32:40.400Z,58.48
2017-04-12T03:33:50.720Z,59.43
2017-04-12T03:35:01.069Z,59.91
2017-04-12T03:36:11.404Z,60.28
2017-04-12T03:37:21.738Z,60.47
2017-04-12T03:38:31.797Z,61.04
2017-04-12T03:39:42.120Z,61.17
2017-04-12T03:40:52.447Z,61.36
2017-04-12T03:42:02.787Z,61.83
2017-04-12T03:43:12.790Z,61.93
2017-04-12T03:44:23.151Z,61.65
2017-04-12T03:45:33.173Z,61.96
2017-04-12T03:46:43.500Z,61.96
2017-04-12T03:47:53.516Z,61.58
2017-04-12T03:49:03.537Z,61.68
2017-04-12T03:50:13.250Z,61.23
2017-04-12T03:51:23.577Z,61.61
2017-04-12T03:52:33.894Z,61.42
2017-04-12T03:53:44.232Z,61.04
2017-04-12T03:54:54.567Z,61.13
2017-04-12T03:56:04.651Z,61.26
2017-04-12T03:57:14.357Z,61.26
2017-04-12T03:58:24.691Z,60.78
2017-04-12T03:59:35.015Z,60.69
2017-04-12T04:00:45.036Z,60.6
2017-04-12T04:01:55.354Z,60.21
2017-04-12T04:03:05.370Z,60.12
2017-04-12T04:04:15.712Z,60.5
2017-04-12T04:05:26.053Z,60.31
2017-04-12T04:06:36.060Z,60.12
2017-04-12T04:07:46.391Z,60.12
2017-04-12T04:08:56.728Z,60.31
2017-04-12T04:10:06.433Z,60.34
2017-04-12T04:11:16.446Z,60.53
2017-04-12T04:12:26.467Z,60.34
2017-04-12T04:13:36.855Z,60.34
2017-04-12T04:14:47.208Z,60.24
2017-04-12T04:15:57.234Z,60.24
2017-04-12T04:17:07.569Z,60.44
2017-04-12T04:18:17.896Z,60.15
2017-04-12T04:19:27.922Z,59.96
2017-04-12T04:20:38.245Z,59.86
2017-04-12T04:21:48.275Z,59.96
2017-04-12T04:22:58.609Z,59.96
2017-04-12T04:24:08.635Z,59.86
2017-04-12T04:25:18.971Z,59.77
2017-04-12T04:26:28.987Z,60.15
2017-04-12T04:27:39.318Z,60.34
2017-04-12T04:28:49.658Z,59.96
2017-04-12T04:29:59.984Z,60.34
2017-04-12T04:31:10.315Z,60.34
2017-04-12T04:32:20.692Z,59.7
2017-04-12T04:33:30.703Z,59.61
2017-04-12T04:34:41.030Z,59.51
2017-04-12T04:35:51.039Z,59.89
2017-04-12T04:37:01.379Z,59.7
2017-04-12T04:38:11.727Z,60.08
2017-04-12T04:39:22.052Z,60.08
2017-04-12T04:40:32.389Z,60.18
2017-04-12T04:41:42.722Z,60.08
2017-04-12T04:42:52.804Z,59.89
2017-04-12T04:44:03.139Z,60.08
2017-04-12T04:45:13.477Z,59.61
2017-04-12T04:46:23.508Z,59.7
2017-04-12T04:47:33.826Z,59.7
2017-04-12T04:48:43.861Z,59.61
2017-04-12T04:49:53.910Z,59.45
2017-04-12T04:51:03.933Z,59.83
2017-04-12T04:52:14.273Z,59.92
2017-04-12T04:53:24.593Z,59.92
2017-04-12T04:54:34.615Z,59.92
2017-04-12T04:55:44.945Z,59.92
2017-04-12T04:56:55.277Z,59.64
2017-04-12T04:58:05.590Z,59.54
2017-04-12T04:59:15.927Z,59.83
2017-04-12T05:00:26.264Z,59.92
2017-04-12T05:01:36.597Z,59.57
2017-04-12T05:02:46.618Z,59.67
2017-04-12T05:03:56.950Z,59.76
2017-04-12T05:05:07.271Z,59.74
2017-04-12T05:06:17.293Z,59.76
2017-04-12T05:07:27.659Z,59.76
2017-04-12T05:08:37.695Z,59.76
2017-04-12T05:09:47.719Z,59.67
2017-04-12T05:10:58.040Z,59.76
2017-04-12T05:12:08.382Z,59.76
2017-04-12T05:13:18.758Z,59.86
2017-04-12T05:14:29.084Z,59.86
2017-04-12T05:15:39.411Z,59.76
2017-04-12T05:16:49.438Z,59.76
2017-04-12T05:17:59.465Z,59.7
2017-04-12T05:19:09.477Z,59.51
2017-04-12T05:20:19.833Z,59.79
2017-04-12T05:21:30.151Z,59.7
2017-04-12T05:22:40.167Z,59.99
2017-04-12T05:23:50.559Z,59.79
2017-04-12T05:25:00.587Z,59.73
2017-04-12T05:26:10.608Z,59.63
2017-04-12T05:27:20.932Z,59.73
2017-04-12T05:28:31.250Z,59.92
2017-04-12T05:29:41.594Z,60.21
2017-04-12T05:30:51.927Z,59.34
2017-04-12T05:32:01.965Z,59.82
2017-04-12T05:33:12.292Z,60.04
2017-04-12T05:34:22.662Z,59.47
2017-04-12T05:35:33.070Z,59.38
2017-04-12T05:36:43.086Z,59.66
2017-04-12T05:37:53.409Z,59.41
2017-04-12T05:39:03.441Z,59.41
2017-04-12T05:40:13.772Z,59.31
2017-04-12T05:41:23.852Z,59.31
2017-04-12T05:42:34.196Z,59.59
2017-04-12T05:43:44.225Z,59.59
2017-04-12T05:44:54.284Z,59.24
2017-04-12T05:46:04.616Z,59.53
2017-04-12T05:47:14.933Z,59.53
2017-04-12T05:48:25.266Z,59.44
2017-04-12T05:49:35.602Z,59.53
2017-04-12T05:50:45.946Z,59.53
2017-04-12T05:51:55.979Z,59.44
2017-04-12T05:53:06.306Z,59.53
2017-04-12T05:54:16.332Z,59.08
2017-04-12T05:55:26.674Z,59.08
2017-04-12T05:56:37.013Z,58.89
2017-04-12T05:57:47.350Z,58.73
2017-04-12T05:58:57.377Z,58.83
2017-04-12T06:00:07.717Z,58.83
2017-04-12T06:01:17.729Z,58.92
2017-04-12T06:02:27.753Z,59.01
2017-04-12T06:03:38.096Z,58.83
2017-04-12T06:04:48.133Z,59.14
2017-04-12T06:05:58.179Z,58.86
2017-04-12T06:07:07.886Z,59.59
2017-04-12T06:08:18.219Z,59.59
2017-04-12T06:09:28.577Z,59.59
2017-04-12T06:10:38.589Z,59.72
2017-04-12T06:11:48.649Z,59.72
2017-04-12T06:12:58.992Z,59.62
2017-04-12T06:14:09.028Z,59.62
2017-04-12T06:15:19.383Z,59.91
2017-04-12T06:16:29.415Z,59.62
2017-04-12T06:17:39.431Z,59.62
2017-04-12T06:18:49.767Z,60.1
2017-04-12T06:19:59.516Z,59.72
2017-04-12T06:21:09.536Z,59.62
2017-04-12T06:22:19.859Z,59.62
2017-04-12T06:23:30.206Z,59.81
2017-04-12T06:24:40.547Z,59.81
2017-04-12T06:25:50.900Z,59.81
2017-04-12T06:27:00.966Z,59.72
2017-04-12T06:28:11.302Z,59.72
2017-04-12T06:29:21.638Z,59.62
2017-04-12T06:30:31.992Z,59.62
2017-04-12T06:31:42.311Z,59.62
2017-04-12T06:32:52.593Z,59.75
2017-04-12T06:34:02.871Z,59.94
2017-04-12T06:35:13.133Z,59.84
2017-04-12T06:36:23.102Z,59.75
2017-04-12T06:37:33.387Z,59.3
2017-04-12T06:38:43.684Z,59.2
2017-04-12T06:39:53.639Z,59.48
2017-04-12T06:41:03.896Z,59.01
2017-04-12T06:42:13.858Z,59.01
2017-04-12T06:43:23.823Z,59.2
2017-04-12T06:44:34.118Z,59.04
2017-04-12T06:45:44.113Z,59.04
2017-04-12T06:46:54.623Z,58.84
2017-04-12T06:48:04.577Z,58.94
2017-04-12T06:49:14.868Z,59.04
2017-04-12T06:50:24.831Z,58.97
2017-04-12T06:51:35.126Z,59.36
2017-04-12T06:52:45.383Z,59.16
2017-04-12T06:53:55.663Z,58.87
2017-04-12T06:55:05.918Z,58.87
2017-04-12T06:56:16.188Z,59.29
2017-04-12T06:57:26.474Z,59.29
2017-04-12T06:58:36.743Z,59.29
2017-04-12T06:59:47.032Z,58.91
2017-04-12T07:00:57.306Z,59
2017-04-12T07:02:07.276Z,59.29
2017-04-12T07:03:17.555Z,58.52
2017-04-12T07:04:27.849Z,59.03
2017-04-12T07:05:38.138Z,59.41
2017-04-12T07:06:48.433Z,59.03
2017-04-12T07:07:58.702Z,59.22
2017-04-12T07:09:08.987Z,59.22
2017-04-12T07:10:18.944Z,59.16
2017-04-12T07:11:28.925Z,59.16
2017-04-12T07:12:38.899Z,59.25
2017-04-12T07:13:48.881Z,59.06
2017-04-12T07:14:59.156Z,59.06
2017-04-12T07:16:09.453Z,58.96
2017-04-12T07:17:19.766Z,58.67
2017-04-12T07:18:30.037Z,58.61
2017-04-12T07:19:40.329Z,58.89
2017-04-12T07:20:50.285Z,58.89
2017-04-12T07:22:00.610Z,58.61
2017-04-12T07:23:10.583Z,58.92
2017-04-12T07:24:20.259Z,58.83
2017-04-12T07:25:30.230Z,58.73
2017-04-12T07:26:40.498Z,58.73
2017-04-12T07:27:50.460Z,58.92
2017-04-12T07:29:00.722Z,58.92
2017-04-12T07:30:10.926Z,58.83
2017-04-12T07:31:21.190Z,58.83
2017-04-12T07:32:31.176Z,58.64
2017-04-12T07:33:41.464Z,58.95
2017-04-12T07:34:51.130Z,58.76
2017-04-12T07:36:01.406Z,58.95
2017-04-12T07:37:11.424Z,58.95
2017-04-12T07:38:21.702Z,58.57
2017-04-12T07:39:31.981Z,58.86
2017-04-12T07:40:42.264Z,58.86
2017-04-12T07:41:51.921Z,58.76
2017-04-12T07:43:02.197Z,58.47
2017-04-12T07:44:12.478Z,58.86
2017-04-12T07:45:22.792Z,58.98
2017-04-12T07:46:33.068Z,58.89
2017-04-12T07:47:43.356Z,58.89
2017-04-12T07:48:53.653Z,58.79
2017-04-12T07:50:03.924Z,58.89
2017-04-12T07:51:14.186Z,58.79
2017-04-12T07:52:24.460Z,58.98
2017-04-12T07:53:34.729Z,58.89
2017-04-12T07:54:45.004Z,58.98
2017-04-12T07:55:54.967Z,58.82
2017-04-12T07:57:05.246Z,58.34
2017-04-12T07:58:15.746Z,58.53
2017-04-12T07:59:25.409Z,58.34
2017-04-12T08:00:35.369Z,57.95
2017-04-12T08:01:45.665Z,58.63
2017-04-12T08:02:55.631Z,58.44
2017-04-12T08:04:05.307Z,58.08
2017-04-12T08:05:15.579Z,58.08
2017-04-12T08:06:25.862Z,58.08
2017-04-12T08:07:35.817Z,58.08
2017-04-12T08:08:46.098Z,58.47
2017-04-12T08:09:56.371Z,58.65
2017-04-12T08:11:06.654Z,58.37
2017-04-12T08:12:16.626Z,58.2
2017-04-12T08:13:26.899Z,58.49
2017-04-12T08:14:37.214Z,57.72
2017-04-12T08:15:47.175Z,57.82
2017-04-12T08:16:57.132Z,57.92
2017-04-12T08:18:07.104Z,57.92
2017-04-12T08:19:17.368Z,57.92
2017-04-12T08:20:27.334Z,58.04
2017-04-12T08:21:37.615Z,58.14
2017-04-12T08:22:48.095Z,58.14
2017-04-12T08:23:58.046Z,58.04
2017-04-12T08:25:08.348Z,57.75
2017-04-12T08:26:18.635Z,58.33
2017-04-12T08:27:28.918Z,58.23
2017-04-12T08:28:38.915Z,58.23
2017-04-12T08:29:49.182Z,58.33
2017-04-12T08:30:59.453Z,58.33
2017-04-12T08:32:09.446Z,58.42
2017-04-12T08:33:19.451Z,58.42
2017-04-12T08:34:29.748Z,58.23
2017-04-12T08:35:39.408Z,58.52
2017-04-12T08:36:49.720Z,58.42
2017-04-12T08:38:00.000Z,58.23
2017-04-12T08:39:10.286Z,58.36
2017-04-12T08:40:20.272Z,58.07
2017-04-12T08:41:30.538Z,57.97
2017-04-12T08:42:40.511Z,57.49
2017-04-12T08:43:50.484Z,57.87
2017-04-12T08:45:00.773Z,57.87
2017-04-12T08:46:10.736Z,57.81
2017-04-12T08:47:21.007Z,57.9
2017-04-12T08:48:31.272Z,57.81
2017-04-12T08:49:40.925Z,57.81
2017-04-12T08:50:51.206Z,57.81
2017-04-12T08:52:01.165Z,57.81
2017-04-12T08:53:11.170Z,58.1
2017-04-12T08:54:20.527Z,57.81
2017-04-12T08:55:30.489Z,57.71
2017-04-12T08:56:40.755Z,57.74
2017-04-12T08:57:51.027Z,57.74
2017-04-12T08:59:01.296Z,57.74
2017-04-12T09:00:11.254Z,57.81
2017-04-12T09:01:21.533Z,57.54
2017-04-12T09:02:31.811Z,57.45
2017-04-12T09:03:41.775Z,57.16
2017-04-12T09:04:52.061Z,57.45
2017-04-12T09:06:02.019Z,57.48
2017-04-12T09:07:12.313Z,57.48
2017-04-12T09:08:22.594Z,57.29
2017-04-12T09:09:32.271Z,57.29
2017-04-12T09:10:41.954Z,57.29
2017-04-12T09:11:51.613Z,57.29
2017-04-12T09:13:01.897Z,57.38
2017-04-12T09:14:11.892Z,57.38
2017-04-12T09:15:22.197Z,57.45
2017-04-12T09:16:32.176Z,57.57
2017-04-12T09:17:42.457Z,57.35
2017-04-12T09:18:52.742Z,57.26
2017-04-12T09:20:03.074Z,57.26
2017-04-12T09:21:13.037Z,57.35
2017-04-12T09:22:23.018Z,57.35
2017-04-12T09:23:33.350Z,57.45
2017-04-12T09:24:43.617Z,57.35
2017-04-12T09:25:53.586Z,57.64
2017-04-12T09:27:03.869Z,56.96
2017-04-12T09:28:13.841Z,56.87
2017-04-12T09:29:24.103Z,56.96
2017-04-12T09:30:34.068Z,56.71
2017-04-12T09:31:43.719Z,56.58
2017-04-12T09:32:54.003Z,56.71
2017-04-12T09:34:03.962Z,56.51
2017-04-12T09:35:14.158Z,56.41
2017-04-12T09:36:23.849Z,56.51
2017-04-12T09:37:34.121Z,56.61
2017-04-12T09:38:44.093Z,56.99
2017-04-12T09:39:54.062Z,56.9
2017-04-12T09:41:04.340Z,56.8
2017-04-12T09:42:14.012Z,57.09
2017-04-12T09:43:24.279Z,56.71
2017-04-12T09:44:34.246Z,56.71
2017-04-12T09:45:44.223Z,56.61
2017-04-12T09:46:54.508Z,56.63
2017-04-12T09:48:04.186Z,56.54
2017-04-12T09:49:14.698Z,56.35
2017-04-12T09:50:24.969Z,56.73
2017-04-12T09:51:35.238Z,56.63
2017-04-12T09:52:45.513Z,56.63
2017-04-12T09:53:55.789Z,56.93
2017-04-12T09:55:06.071Z,56.73
2017-04-12T09:56:15.762Z,56.73
2017-04-12T09:57:26.035Z,56.73
2017-04-12T09:58:36.013Z,56.73
2017-04-12T09:59:46.292Z,56.93
2017-04-12T10:00:56.587Z,56.73
2017-04-12T10:02:06.556Z,56.73
2017-04-12T10:03:16.538Z,56.83
2017-04-12T10:04:26.815Z,57.21
2017-04-12T10:05:37.090Z,57.19
2017-04-12T10:06:47.388Z,57.48
2017-04-12T10:07:57.670Z,57.6
2017-04-12T10:09:07.637Z,56.93
2017-04-12T10:10:17.605Z,57.31
2017-04-12T10:11:27.890Z,57.6
2017-04-12T10:12:38.165Z,57.19
2017-04-12T10:13:48.445Z,57.38
2017-04-12T10:14:58.714Z,57.79
2017-04-12T10:16:09.007Z,57.7
2017-04-12T10:17:19.290Z,57.21
2017-04-12T10:18:29.252Z,57.6
2017-04-12T10:19:38.911Z,57.41
2017-04-12T10:20:48.884Z,57.41
2017-04-12T10:21:58.892Z,57.7
2017-04-12T10:23:08.869Z,57.6
2017-04-12T10:24:18.829Z,57.21
2017-04-12T10:25:29.103Z,57.31
2017-04-12T10:26:39.123Z,57.31
2017-04-12T10:27:49.086Z,57.41
2017-04-12T10:28:59.364Z,57.41
2017-04-12T10:30:09.647Z,57.41
2017-04-12T10:31:19.930Z,57.38
2017-04-12T10:32:30.204Z,57.87
2017-04-12T10:33:40.472Z,57.87
2017-04-12T10:34:50.755Z,57.87
2017-04-12T10:36:01.045Z,57.87
2017-04-12T10:37:11.009Z,57.93
2017-04-12T10:38:21.289Z,57.93
2017-04-12T10:39:31.254Z,57.77
2017-04-12T10:40:41.225Z,57.29
2017-04-12T10:41:51.513Z,57.67
2017-04-12T10:43:01.177Z,57.41
2017-04-12T10:44:11.476Z,56.73
2017-04-12T10:45:21.763Z,56.76
2017-04-12T10:46:32.032Z,56.76
2017-04-12T10:47:42.315Z,56.88
2017-04-12T10:48:52.590Z,56.67
2017-04-12T10:50:02.559Z,56.95
2017-04-12T10:51:12.852Z,57.05
2017-04-12T10:52:23.131Z,57.44
2017-04-12T10:53:33.412Z,57.44
2017-04-12T10:54:43.079Z,57.82
2017-04-12T10:55:53.366Z,57.73
2017-04-12T10:57:03.633Z,57.34
2017-04-12T10:58:13.956Z,57.34
2017-04-12T10:59:24.287Z,57.66
2017-04-12T11:00:34.565Z,57.37
2017-04-12T11:01:44.226Z,57.54
2017-04-12T11:02:54.502Z,57.46
2017-04-12T11:04:04.764Z,57.08
2017-04-12T11:05:14.429Z,56.82
2017-04-12T11:06:24.088Z,56.82
2017-04-12T11:07:34.435Z,56.26
2017-04-12T11:08:44.728Z,56
2017-04-12T11:09:55.007Z,55.9
2017-04-12T11:11:05.294Z,55.54
2017-04-12T11:12:15.599Z,55.54
2017-04-12T11:13:25.881Z,55.83
2017-04-12T11:14:36.182Z,55.06
2017-04-12T11:15:46.470Z,55.28
2017-04-12T11:16:56.441Z,55.41
2017-04-12T11:18:06.744Z,55.5
2017-04-12T11:19:16.701Z,55.89
2017-04-12T11:20:26.978Z,55.99
2017-04-12T11:21:37.260Z,55.63
2017-04-12T11:22:47.534Z,55.63
2017-04-12T11:23:57.827Z,55.63
2017-04-12T11:25:07.814Z,55.53
2017-04-12T11:26:17.780Z,55.55
2017-04-12T11:27:28.062Z,55.85
2017-04-12T11:28:38.345Z,56.04
2017-04-12T11:29:48.609Z,56.04
2017-04-12T11:30:58.890Z,55.94
2017-04-12T11:32:09.158Z,56.24
2017-04-12T11:33:19.442Z,56.6
2017-04-12T11:34:29.104Z,56.7
2017-04-12T11:35:39.416Z,56.96
2017-04-12T11:36:49.703Z,57.34
2017-04-12T11:37:59.980Z,57.83
2017-04-12T11:39:10.256Z,57.51
2017-04-12T11:40:20.537Z,57.51
2017-04-12T11:41:30.497Z,57.78
2017-04-12T11:42:40.773Z,57.68
2017-04-12T11:43:51.058Z,57.58
2017-04-12T11:45:00.714Z,57.48
2017-04-12T11:46:11.005Z,57.09
2017-04-12T11:47:20.691Z,56.93
2017-04-12T11:48:30.969Z,56.83
2017-04-12T11:49:41.261Z,56.74
2017-04-12T11:50:51.543Z,57.22
2017-04-12T11:52:01.505Z,57.68
2017-04-12T11:53:11.184Z,57.58
2017-04-12T11:54:21.451Z,57.84
2017-04-12T11:55:31.798Z,58.42
2017-04-12T11:56:42.095Z,58.01
2017-04-12T11:57:52.306Z,57.91
2017-04-12T11:59:02.593Z,58.11
2017-04-12T12:00:12.880Z,57.91
2017-04-12T12:01:22.553Z,58.3
2017-04-12T12:02:32.514Z,58.37
2017-04-12T12:03:42.780Z,58.07
2017-04-12T12:04:52.742Z,58.17
2017-04-12T12:06:03.019Z,58.17
2017-04-12T12:07:13.287Z,58.37
2017-04-12T12:08:23.574Z,58.44
2017-04-12T12:09:33.854Z,59.01
2017-04-12T12:10:44.122Z,59.28
2017-04-12T12:11:54.388Z,59.83
2017-04-12T12:13:04.674Z,59.51
2017-04-12T12:14:14.948Z,59.51
2017-04-12T12:15:25.220Z,59.41
2017-04-12T12:16:35.490Z,59.41
2017-04-12T12:17:45.771Z,59.31
2017-04-12T12:18:56.078Z,59.7
2017-04-12T12:20:06.366Z,58.7
2017-04-12T12:21:16.358Z,58.9
2017-04-12T12:22:26.641Z,59.19
2017-04-12T12:23:36.614Z,58.9
2017-04-12T12:24:46.584Z,59.09
2017-04-12T12:25:56.850Z,59.09
2017-04-12T12:27:06.859Z,58.7
2017-04-12T12:28:16.847Z,59.02
2017-04-12T12:29:27.163Z,58.54
2017-04-12T12:30:37.195Z,58.25
2017-04-12T12:31:47.462Z,57.87
2017-04-12T12:32:57.424Z,57.41
2017-04-12T12:34:06.814Z,57.54
2017-04-12T12:35:17.096Z,57.73
2017-04-12T12:36:27.374Z,57.63
2017-04-12T12:37:37.343Z,57.54
2017-04-12T12:38:47.612Z,57.46
2017-04-12T12:39:57.908Z,57.63
2017-04-12T12:41:08.222Z,57.28
2017-04-12T12:42:18.516Z,57.76
2017-04-12T12:43:28.505Z,57.37
2017-04-12T12:44:38.813Z,56.98
2017-04-12T12:45:49.085Z,57.01
2017-04-12T12:46:59.396Z,57.3
2017-04-12T12:48:09.400Z,56.98
2017-04-12T12:49:19.678Z,57.01
2017-04-12T12:50:29.960Z,57.01
2017-04-12T12:51:39.661Z,56.62
2017-04-12T12:52:49.969Z,56.82
2017-04-12T12:54:00.244Z,56.46
2017-04-12T12:55:10.550Z,56.85
2017-04-12T12:56:20.517Z,56.75
2017-04-12T12:57:30.801Z,57.14
2017-04-12T12:58:40.771Z,56.94
2017-04-12T12:59:51.086Z,56.77
2017-04-12T13:01:01.361Z,56.75
2017-04-12T13:02:11.645Z,56.94
2017-04-12T13:03:21.925Z,56.87
2017-04-12T13:04:32.212Z,57.04
2017-04-12T13:05:42.485Z,57.07
2017-04-12T13:06:52.765Z,56.49
2017-04-12T13:08:02.759Z,56.68
2017-04-12T13:09:13.032Z,56.77
2017-04-12T13:10:23.304Z,56.97
2017-04-12T13:11:33.580Z,57.17
2017-04-12T13:12:43.857Z,57.33
2017-04-12T13:13:54.178Z,57.91
2017-04-12T13:15:04.161Z,57.71
2017-04-12T13:16:14.428Z,57.53
2017-04-12T13:17:24.686Z,58.01
2017-04-12T13:18:35.011Z,58.07
2017-04-12T13:19:44.981Z,57.88
2017-04-12T13:20:55.263Z,58.14
2017-04-12T13:22:05.233Z,58.04
2017-04-12T13:23:15.257Z,57.95
2017-04-12T13:24:25.223Z,57.95
2017-04-12T13:25:35.516Z,57.92
2017-04-12T13:26:45.812Z,58.4
2017-04-12T13:27:55.478Z,58.4
2017-04-12T13:29:05.139Z,58.31
2017-04-12T13:30:15.417Z,57.89
2017-04-12T13:31:25.691Z,57.89
2017-04-12T13:32:35.990Z,57.89
2017-04-12T13:33:45.980Z,57.89
2017-04-12T13:34:56.007Z,58.28
2017-04-12T13:36:06.285Z,57.77
2017-04-12T13:37:16.564Z,57.96
2017-04-12T13:38:26.840Z,57.96
2017-04-12T13:39:36.815Z,57.96
2017-04-12T13:40:46.848Z,58.25
2017-04-12T13:41:57.121Z,58.15
2017-04-12T13:43:07.086Z,58.35
2017-04-12T13:44:17.359Z,58.15
2017-04-12T13:45:26.721Z,58.35
2017-04-12T13:46:36.387Z,58.45
2017-04-12T13:47:46.669Z,59.02
2017-04-12T13:48:56.044Z,58.7
2017-04-12T13:50:06.333Z,59
2017-04-12T13:51:16.603Z,59
2017-04-12T13:52:26.572Z,58.9
2017-04-12T13:53:36.848Z,59.09
2017-04-12T13:54:46.839Z,58.9
2017-04-12T13:55:57.110Z,58.83
2017-04-12T13:57:07.588Z,58.64
2017-04-12T13:58:17.863Z,57.96
2017-04-12T13:59:28.176Z,57.41
2017-04-12T14:00:38.138Z,57.54
2017-04-12T14:01:48.400Z,57.44
2017-04-12T14:02:58.370Z,57.92
2017-04-12T14:04:08.644Z,57.54
2017-04-12T14:05:18.631Z,57.99
2017-04-12T14:06:28.918Z,58.18
2017-04-12T14:07:39.185Z,57.89
2017-04-12T14:08:49.456Z,58.37
2017-04-12T14:09:59.777Z,58.18
2017-04-12T14:11:10.069Z,58.67
2017-04-12T14:12:19.759Z,58.57
2017-04-12T14:13:30.065Z,58.93
2017-04-12T14:14:40.335Z,58.93
2017-04-12T14:15:50.612Z,59.41
2017-04-12T14:17:00.607Z,59.51
2017-04-12T14:18:10.896Z,59.41
2017-04-12T14:19:21.181Z,59.41
2017-04-12T14:20:31.453Z,59.6
2017-04-12T14:21:41.489Z,58.83
2017-04-12T14:22:51.775Z,58.93
2017-04-12T14:24:02.064Z,59.02
2017-04-12T14:25:12.338Z,59.12
2017-04-12T14:26:22.620Z,59.28
2017-04-12T14:27:32.943Z,59.38
2017-04-12T14:28:42.904Z,59.28
2017-04-12T14:29:53.182Z,59.28
2017-04-12T14:31:03.191Z,59.38
2017-04-12T14:32:13.494Z,59.77
2017-04-12T14:33:23.763Z,59.58
2017-04-12T14:34:34.054Z,59.48
2017-04-12T14:35:44.329Z,59.38
2017-04-12T14:36:54.300Z,59.45
2017-04-12T14:38:04.588Z,59.83
2017-04-12T14:39:14.854Z,59.93
2017-04-12T14:40:24.215Z,59.64
2017-04-12T14:41:34.507Z,59.83
2017-04-12T14:42:44.162Z,59.83
2017-04-12T14:43:54.437Z,59.45
2017-04-12T14:45:04.709Z,59.25
2017-04-12T14:46:15.025Z,59.55
2017-04-12T14:47:25.298Z,59.35
2017-04-12T14:48:35.568Z,59.55
2017-04-12T14:49:45.848Z,59.74
2017-04-12T14:50:55.816Z,59.55
2017-04-12T14:52:05.773Z,59.45
2017-04-12T14:53:15.749Z,59.64
2017-04-12T14:54:26.033Z,59.45
2017-04-12T14:55:36.014Z,59.42
2017-04-12T14:56:46.282Z,59.52
2017-04-12T14:57:56.567Z,59.52
2017-04-12T14:59:06.845Z,59.71
2017-04-12T15:00:17.130Z,59.52
2017-04-12T15:01:27.433Z,59.8
2017-04-12T15:02:36.780Z,59.42
2017-04-12T15:03:47.093Z,59.8
2017-04-12T15:04:57.375Z,59.71
2017-04-12T15:06:07.635Z,60.1
2017-04-12T15:07:17.913Z,60.16
2017-04-12T15:08:28.187Z,60.06
2017-04-12T15:09:38.465Z,60.06
2017-04-12T15:10:48.737Z,60.26
2017-04-12T15:11:59.005Z,60.26
2017-04-12T15:13:09.274Z,60.35
2017-04-12T15:14:19.551Z,60.16
2017-04-12T15:15:29.508Z,60.06
2017-04-12T15:16:39.799Z,60.03
2017-04-12T15:17:50.089Z,59.94
2017-04-12T15:19:00.414Z,60.13
2017-04-12T15:20:10.687Z,60.16
2017-04-12T15:21:20.698Z,60.06
2017-04-12T15:22:30.375Z,59.78
2017-04-12T15:23:40.653Z,60.13
2017-04-12T15:24:50.678Z,60.03
2017-04-12T15:26:00.962Z,60.13
2017-04-12T15:27:11.274Z,60.16
2017-04-12T15:28:21.563Z,60.35
2017-04-12T15:29:31.833Z,59.78
2017-04-12T15:30:42.130Z,59.87
2017-04-12T15:31:52.398Z,59.58
2017-04-12T15:33:02.060Z,59.97
2017-04-12T15:34:12.037Z,60.06
2017-04-12T15:35:22.321Z,60.16